Time;durP1;ratioP1;P1;durP2;ratioP2;P2;SDS_P1;SDS_P2;PMS_P1;PMS_P2;Temp;Humidity;BMP_temperature;BMP_pressure;BME280_temperature;BME280_humidity;BME280_pressure;Samples;Min_cycle;Max_cycle;Signal;HPM_P1;HPM_P2
2022/08/27 00:01:00;;;;;;;8.43;4.93;;;17.30;99.90;;;;;;7316063;32;20116;-61
2022/08/27 00:05:02;;;;;;;8.57;5.53;;;17.30;99.90;;;;;;7319607;32;20297;-61
2022/08/27 00:09:04;;;;;;;9.43;5.90;;;17.30;99.90;;;;;;7311199;32;20252;-61
2022/08/27 00:13:06;;;;;;;9.20;6.12;;;17.30;99.90;;;;;;7317951;32;20111;-61
2022/08/27 00:17:08;;;;;;;8.88;6.35;;;17.30;99.90;;;;;;7318287;32;20112;-61
2022/08/27 00:21:11;;;;;;;10.23;6.18;;;17.20;99.90;;;;;;7309465;32;20349;-61
2022/08/27 00:25:13;;;;;;;13.18;6.68;;;17.30;99.90;;;;;;7318237;32;20749;-60
2022/08/27 00:29:16;;;;;;;13.68;6.93;;;17.20;99.90;;;;;;7319458;32;20224;-62
2022/08/27 00:33:18;;;;;;;8.52;5.97;;;17.10;99.90;;;;;;7304319;32;20179;-62
2022/08/27 00:37:19;;;;;;;16.92;6.68;;;17.10;99.90;;;;;;7320707;32;20536;-62
2022/08/27 00:41:22;;;;;;;18.85;8.50;;;17.10;99.90;;;;;;7314154;32;20123;-62
2022/08/27 00:45:25;;;;;;;14.70;7.12;;;17.10;99.90;;;;;;7311734;32;20245;-61
2022/08/27 00:49:36;;;;;;;16.73;9.48;;;17.10;99.90;;;;;;7324739;32;20100;-62
2022/08/27 00:53:38;;;;;;;13.93;8.90;;;17.00;99.90;;;;;;7295562;32;20111;-62
2022/08/27 00:57:41;;;;;;;15.65;11.10;;;17.00;99.90;;;;;;7312662;32;20505;-62
2022/08/27 01:06:10;;;;;;;16.15;10.82;;;17.00;99.90;;;;;;7314703;32;20801;-61
2022/08/27 01:10:20;;;;;;;13.40;10.43;;;17.00;99.90;;;;;;7311168;32;20715;-60
2022/08/27 01:14:23;;;;;;;20.25;10.32;;;16.90;99.90;;;;;;7316074;32;20747;-61
2022/08/27 01:18:28;;;;;;;16.33;9.55;;;17.00;99.90;;;;;;7313761;32;20612;-61
2022/08/27 01:23:10;;;;;;;16.62;8.70;;;16.90;99.90;;;;;;7318389;32;20802;-62
2022/08/27 01:27:20;;;;;;;18.33;8.40;;;16.90;99.90;;;;;;7305112;32;20184;-61
2022/08/27 01:31:25;;;;;;;14.20;7.95;;;16.90;99.90;;;;;;7316932;32;20100;-61
2022/08/27 01:35:27;;;;;;;13.90;7.78;;;16.80;99.90;;;;;;7315067;32;20123;-61
2022/08/27 01:39:29;;;;;;;10.52;8.43;;;16.90;99.90;;;;;;7321752;32;20184;-62
2022/08/27 01:43:32;;;;;;;17.77;8.30;;;16.80;99.90;;;;;;7322577;32;20177;-61
2022/08/27 01:47:35;;;;;;;12.18;8.60;;;16.80;99.90;;;;;;7317338;32;20569;-61
2022/08/27 01:51:37;;;;;;;12.88;7.47;;;16.80;99.90;;;;;;7305511;32;20131;-61
2022/08/27 01:55:40;;;;;;;10.98;7.37;;;16.80;99.90;;;;;;7323004;32;20177;-61
2022/08/27 01:59:48;;;;;;;21.12;7.97;;;16.80;99.90;;;;;;7307822;32;20558;-61
2022/08/27 02:03:50;;;;;;;18.17;8.32;;;16.70;99.90;;;;;;7322866;32;20557;-62
2022/08/27 02:07:53;;;;;;;15.15;7.90;;;16.70;99.90;;;;;;7321809;32;20340;-62
2022/08/27 02:11:54;;;;;;;15.07;7.97;;;16.70;99.90;;;;;;7325976;32;20622;-62
2022/08/27 02:15:56;;;;;;;13.15;8.02;;;16.70;99.90;;;;;;7322492;32;20164;-61
2022/08/27 02:19:59;;;;;;;17.40;7.75;;;16.80;99.90;;;;;;7318347;32;20129;-61
2022/08/27 02:24:01;;;;;;;14.15;6.37;;;16.80;99.90;;;;;;7311421;32;20147;-61
2022/08/27 02:28:05;;;;;;;12.75;5.55;;;16.80;99.90;;;;;;7320136;32;20112;-61
2022/08/27 02:32:07;;;;;;;13.48;4.75;;;16.80;99.90;;;;;;7321184;32;20151;-61
2022/08/27 02:36:29;;;;;;;12.70;4.25;;;16.80;99.90;;;;;;7318628;32;20129;-61
2022/08/27 02:40:31;;;;;;;9.23;3.62;;;16.80;99.90;;;;;;7319031;32;20262;-61
2022/08/27 02:44:34;;;;;;;9.48;3.42;;;16.70;99.90;;;;;;7314513;32;20259;-61
2022/08/27 02:48:37;;;;;;;9.05;3.65;;;16.70;99.90;;;;;;7318434;32;20205;-62
2022/08/27 02:52:38;;;;;;;6.55;3.40;;;16.70;99.90;;;;;;7305034;32;20285;-61
2022/08/27 02:56:40;;;;;;;11.12;3.45;;;16.70;99.90;;;;;;7323518;32;20199;-61
2022/08/27 03:00:43;;;;;;;13.25;3.10;;;16.60;99.90;;;;;;7318288;32;20128;-61
2022/08/27 03:04:46;;;;;;;7.45;2.72;;;16.60;99.90;;;;;;7315504;32;20217;-61
2022/08/27 03:08:48;;;;;;;10.40;3.05;;;16.60;99.90;;;;;;7320934;32;20236;-60
2022/08/27 03:12:54;;;;;;;7.72;2.90;;;16.60;99.90;;;;;;7307025;32;20481;-61
2022/08/27 03:18:17;;;;;;;15.23;3.97;;;16.50;99.90;;;;;;7323351;32;20634;-62
2022/08/27 03:21:24;;;;;;;9.90;2.87;;;16.60;99.90;;;;;;7321471;32;20163;-61
2022/08/27 03:25:25;;;;;;;6.57;2.15;;;16.50;99.90;;;;;;7318425;32;20222;-62
2022/08/27 03:29:27;;;;;;;8.93;2.42;;;16.50;99.90;;;;;;7319220;32;20291;-61
2022/08/27 03:33:32;;;;;;;7.68;2.30;;;16.60;99.90;;;;;;7319060;32;20168;-62
2022/08/27 03:37:34;;;;;;;6.82;2.30;;;16.60;99.90;;;;;;7318815;32;20160;-61
2022/08/27 03:41:36;;;;;;;13.75;2.85;;;16.50;99.90;;;;;;7321273;32;20626;-62
2022/08/27 03:45:56;;;;;;;11.45;2.83;;;16.50;99.90;;;;;;7299861;32;20190;-62
2022/08/27 03:50:04;;;;;;;10.50;2.40;;;16.50;99.90;;;;;;7309954;32;20606;-62
2022/08/27 03:54:06;;;;;;;10.10;2.70;;;16.40;99.90;;;;;;7318960;32;20375;-62
2022/08/27 03:58:09;;;;;;;9.98;2.62;;;16.40;99.90;;;;;;7321288;32;20177;-62
2022/08/27 04:02:11;;;;;;;7.37;2.62;;;16.30;99.90;;;;;;7307649;32;20126;-62
2022/08/27 04:06:15;;;;;;;8.20;2.45;;;16.30;99.90;;;;;;7320796;32;20831;-62
2022/08/27 04:10:17;;;;;;;12.02;2.87;;;16.30;99.90;;;;;;7320803;32;20162;-62
2022/08/27 04:14:19;;;;;;;9.07;2.47;;;16.30;99.90;;;;;;7304878;32;20550;-62
2022/08/27 04:18:28;;;;;;;9.55;2.65;;;16.30;99.90;;;;;;7317282;32;20433;-62
2022/08/27 04:22:29;;;;;;;10.00;2.47;;;16.30;99.90;;;;;;7297640;32;20219;-62
2022/08/27 04:26:31;;;;;;;6.25;2.62;;;16.40;99.90;;;;;;7310103;32;20164;-63
2022/08/27 04:30:37;;;;;;;7.15;2.50;;;16.40;99.90;;;;;;7315310;32;20183;-62
2022/08/27 04:34:39;;;;;;;7.50;2.62;;;16.30;99.90;;;;;;7319371;32;20119;-61
2022/08/27 04:38:41;;;;;;;8.85;3.00;;;16.20;99.90;;;;;;7313639;32;20120;-62
2022/08/27 04:42:43;;;;;;;11.55;3.15;;;16.20;99.90;;;;;;7317297;32;20246;-61
2022/08/27 04:46:46;;;;;;;6.80;2.62;;;16.10;99.90;;;;;;7311311;32;20600;-60
2022/08/27 04:50:50;;;;;;;15.02;3.40;;;16.10;99.90;;;;;;7308114;32;20337;-62
2022/08/27 04:54:52;;;;;;;9.43;3.20;;;16.00;99.90;;;;;;7311515;32;20161;-62
2022/08/27 04:58:54;;;;;;;10.80;3.25;;;16.00;99.90;;;;;;7301371;32;20142;-59
2022/08/27 05:02:56;;;;;;;14.43;3.58;;;16.00;99.90;;;;;;7320816;32;20709;-60
2022/08/27 05:06:59;;;;;;;11.18;3.47;;;16.00;99.90;;;;;;7301560;32;20104;-61
2022/08/27 05:11:01;;;;;;;8.95;3.60;;;15.90;99.90;;;;;;7312484;32;21541;-62
2022/08/27 05:15:03;;;;;;;9.02;3.85;;;15.90;99.90;;;;;;7314066;32;20457;-60
2022/08/27 05:19:07;;;;;;;10.73;3.40;;;15.80;99.90;;;;;;7322470;32;20206;-61
2022/08/27 05:23:10;;;;;;;9.68;3.58;;;15.80;99.90;;;;;;7322010;32;20211;-62
2022/08/27 05:27:12;;;;;;;7.93;3.78;;;15.80;99.90;;;;;;7317030;32;20172;-61
2022/08/27 05:31:15;;;;;;;8.25;3.78;;;15.80;99.90;;;;;;7317452;32;20184;-60
2022/08/27 05:35:18;;;;;;;12.90;4.40;;;15.90;99.90;;;;;;7323455;32;20215;-62
2022/08/27 05:39:20;;;;;;;8.20;3.70;;;15.80;99.90;;;;;;7318184;32;20096;-62
2022/08/27 05:43:22;;;;;;;8.95;4.20;;;15.90;99.90;;;;;;7315285;32;20127;-70
2022/08/27 05:47:24;;;;;;;11.00;4.25;;;15.90;99.90;;;;;;7326627;32;20215;-71
2022/08/27 05:51:34;;;;;;;9.00;4.47;;;15.90;99.90;;;;;;7310571;32;20138;-70
2022/08/27 05:55:42;;;;;;;13.18;4.30;;;15.70;99.90;;;;;;7313976;32;20195;-69
2022/08/27 06:04:05;;;;;;;8.70;4.22;;;15.70;99.90;;;;;;7313886;32;20386;-71
2022/08/27 06:08:07;;;;;;;8.15;4.47;;;15.70;99.90;;;;;;7319171;32;20215;-68
2022/08/27 06:12:08;;;;;;;12.20;4.62;;;15.80;99.90;;;;;;7319086;32;20115;-71
2022/08/27 06:16:14;;;;;;;10.25;4.10;;;15.80;99.90;;;;;;7305959;32;20206;-69
2022/08/27 06:20:17;;;;;;;11.57;4.00;;;15.80;99.90;;;;;;7317158;32;20160;-69
2022/08/27 06:24:19;;;;;;;8.30;4.65;;;15.90;99.90;;;;;;7320952;32;20528;-66
2022/08/27 06:28:22;;;;;;;14.65;4.40;;;15.90;99.90;;;;;;7313316;32;20359;-70
2022/08/27 06:32:24;;;;;;;11.25;4.55;;;16.00;99.90;;;;;;7318668;32;20190;-69
2022/08/27 06:36:28;;;;;;;10.60;4.90;;;15.90;99.90;;;;;;7302810;32;20202;-69
2022/08/27 06:40:30;;;;;;;10.77;4.70;;;16.00;99.90;;;;;;7320677;32;20647;-68
2022/08/27 06:44:32;;;;;;;8.25;4.05;;;16.10;99.90;;;;;;7317094;32;20115;-70
2022/08/27 06:48:34;;;;;;;9.77;4.70;;;16.10;99.90;;;;;;7309464;32;20112;-65
2022/08/27 06:52:36;;;;;;;13.38;4.95;;;16.10;99.90;;;;;;7315490;32;20290;-66
2022/08/27 06:56:39;;;;;;;14.95;7.82;;;16.10;99.90;;;;;;7315900;32;20112;-65
2022/08/27 07:00:43;;;;;;;9.95;4.80;;;16.10;99.90;;;;;;7316394;32;20108;-65
2022/08/27 07:04:52;;;;;;;12.90;4.40;;;16.20;99.90;;;;;;7321883;32;20134;-64
2022/08/27 07:08:57;;;;;;;10.75;4.15;;;16.30;99.90;;;;;;7311500;32;20362;-64
2022/08/27 07:13:00;;;;;;;7.75;3.92;;;16.40;99.90;;;;;;7318238;32;20226;-64
2022/08/27 07:17:02;;;;;;;12.25;4.28;;;16.40;99.90;;;;;;7324411;32;20221;-64
2022/08/27 07:21:05;;;;;;;12.70;4.68;;;16.50;99.90;;;;;;7319366;32;20211;-64
2022/08/27 07:25:11;;;;;;;9.32;4.10;;;16.60;99.90;;;;;;7318313;32;20210;-65
2022/08/27 07:29:14;;;;;;;11.10;3.83;;;16.60;99.90;;;;;;7324317;32;20192;-63
2022/08/27 07:33:15;;;;;;;9.93;3.53;;;16.60;99.90;;;;;;7318233;32;20118;-64
2022/08/27 07:37:17;;;;;;;14.27;3.97;;;16.70;99.90;;;;;;7301531;32;20523;-63
2022/08/27 07:41:19;;;;;;;12.63;4.12;;;16.70;99.90;;;;;;7316948;32;20512;-64
2022/08/27 07:45:21;;;;;;;14.15;4.03;;;16.80;99.90;;;;;;7323512;32;20104;-67
2022/08/27 07:49:26;;;;;;;8.23;3.37;;;16.90;99.90;;;;;;7304691;32;20531;-68
2022/08/27 07:53:28;;;;;;;7.90;3.80;;;17.00;99.90;;;;;;7320211;32;20271;-66
2022/08/27 07:57:31;;;;;;;11.75;5.57;;;17.20;99.90;;;;;;7321323;32;20225;-64
2022/08/27 08:01:32;;;;;;;10.55;3.45;;;17.30;99.90;;;;;;7318967;32;20312;-65
2022/08/27 08:05:34;;;;;;;11.00;3.87;;;17.30;99.90;;;;;;7321339;32;20181;-65
2022/08/27 08:09:37;;;;;;;11.00;3.22;;;17.50;99.90;;;;;;7321361;32;20112;-64
2022/08/27 08:13:39;;;;;;;8.80;2.92;;;17.40;99.90;;;;;;7309646;32;20116;-64
2022/08/27 08:17:41;;;;;;;7.65;2.95;;;17.50;99.90;;;;;;7323859;32;20184;-65
2022/08/27 08:21:42;;;;;;;10.98;2.87;;;17.60;99.90;;;;;;7309750;32;21608;-65
2022/08/27 08:25:44;;;;;;;9.05;3.20;;;17.70;99.90;;;;;;7319512;32;20116;-65
2022/08/27 08:29:47;;;;;;;12.27;3.17;;;17.80;99.90;;;;;;7318988;32;20273;-65
2022/08/27 08:33:49;;;;;;;10.35;3.12;;;17.90;99.90;;;;;;7317924;32;20214;-64
2022/08/27 08:37:51;;;;;;;10.10;3.50;;;17.80;99.90;;;;;;7320994;32;20239;-65
2022/08/27 08:42:01;;;;;;;10.23;2.95;;;17.90;99.90;;;;;;7303200;32;20376;-65
2022/08/27 08:46:21;;;;;;;7.20;2.90;;;18.00;99.90;;;;;;7314087;32;20131;-65
2022/08/27 08:50:33;;;;;;;7.20;2.83;;;18.00;99.90;;;;;;7310264;32;20749;-64
2022/08/27 08:54:37;;;;;;;7.00;2.83;;;18.00;99.90;;;;;;7316282;32;20096;-65
2022/08/27 08:58:47;;;;;;;6.62;2.67;;;18.20;99.90;;;;;;7319879;32;20332;-65
2022/08/27 09:02:53;;;;;;;8.63;3.22;;;18.30;99.90;;;;;;7305997;32;20247;-65
2022/08/27 09:07:04;;;;;;;9.80;2.80;;;18.30;99.90;;;;;;7312087;32;20171;-58
2022/08/27 09:11:24;;;;;;;7.40;2.50;;;18.30;99.90;;;;;;7317683;32;20612;-61
2022/08/27 09:15:33;;;;;;;8.13;2.53;;;18.50;99.90;;;;;;7314165;32;20174;-56
2022/08/27 09:19:35;;;;;;;6.87;2.10;;;18.60;99.90;;;;;;7316837;32;20172;-55
2022/08/27 09:23:56;;;;;;;12.23;3.10;;;18.60;99.90;;;;;;7310928;32;20208;-56
2022/08/27 09:28:00;;;;;;;9.80;2.80;;;18.70;99.90;;;;;;7313526;32;20183;-57
2022/08/27 09:32:09;;;;;;;6.53;2.17;;;18.90;99.90;;;;;;7316221;32;20212;-56
2022/08/27 09:36:15;;;;;;;5.87;2.67;;;19.10;99.90;;;;;;7320375;32;20213;-56
2022/08/27 09:40:30;;;;;;;10.45;2.65;;;19.20;99.90;;;;;;7314247;32;20096;-55
2022/08/27 09:44:45;;;;;;;6.30;2.00;;;19.30;99.90;;;;;;7317098;32;20192;-65
2022/08/27 09:48:52;;;;;;;4.95;1.80;;;19.30;99.90;;;;;;7321213;32;20116;-66
2022/08/27 09:52:57;;;;;;;10.52;2.20;;;19.30;99.90;;;;;;7315104;32;20176;-66
2022/08/27 09:57:00;;;;;;;7.25;1.92;;;19.30;99.90;;;;;;7320496;32;20210;-67
2022/08/27 10:01:09;;;;;;;6.95;2.15;;;19.40;99.90;;;;;;7320020;32;20208;-68
2022/08/27 10:05:23;;;;;;;5.30;1.70;;;19.40;99.90;;;;;;7320444;32;20235;-67
2022/08/27 10:09:41;;;;;;;9.40;1.85;;;19.60;99.90;;;;;;7322674;32;20538;-66
2022/08/27 10:14:13;;;;;;;7.57;1.90;;;19.70;99.90;;;;;;7320533;32;20124;-66
2022/08/27 10:18:45;;;;;;;6.97;1.77;;;19.60;99.90;;;;;;7324401;32;20621;-66
2022/08/27 10:23:11;;;;;;;5.68;1.65;;;19.70;99.90;;;;;;7319394;32;20103;-66
2022/08/27 10:27:22;;;;;;;7.72;1.73;;;19.70;99.90;;;;;;7313154;32;20202;-66
2022/08/27 10:31:58;;;;;;;8.63;1.60;;;19.70;99.90;;;;;;7313939;32;20114;-66
2022/08/27 10:36:15;;;;;;;4.82;2.08;;;19.60;99.90;;;;;;7322029;32;20169;-68
2022/08/27 10:40:48;;;;;;;8.75;1.87;;;19.60;99.90;;;;;;7326464;32;20297;-67
2022/08/27 10:45:08;;;;;;;5.57;1.95;;;19.70;99.90;;;;;;7321384;32;20792;-67
2022/08/27 10:49:13;;;;;;;6.82;1.98;;;19.80;99.90;;;;;;7315399;32;20122;-66
2022/08/27 10:53:58;;;;;;;9.07;3.70;;;19.80;99.90;;;;;;7322901;32;20120;-68
2022/08/27 10:58:26;;;;;;;7.95;2.08;;;19.80;99.90;;;;;;7323245;32;20723;-68
2022/08/27 11:02:43;;;;;;;9.48;2.30;;;19.80;99.90;;;;;;7318951;32;20115;-67
2022/08/27 11:07:01;;;;;;;6.93;2.10;;;19.90;99.90;;;;;;7327682;32;20107;-68
2022/08/27 11:11:14;;;;;;;9.18;1.98;;;20.00;99.90;;;;;;7320203;32;20179;-68
2022/08/27 11:15:41;;;;;;;9.68;1.70;;;20.00;99.90;;;;;;7317467;32;20096;-67
2022/08/27 11:19:55;;;;;;;9.30;2.03;;;20.10;99.90;;;;;;7319128;32;20173;-67
2022/08/27 11:24:10;;;;;;;4.90;1.77;;;20.20;99.90;;;;;;7318983;32;20286;-67
2022/08/27 11:28:13;;;;;;;4.03;1.70;;;20.30;99.90;;;;;;7319417;32;20356;-69
2022/08/27 11:32:27;;;;;;;4.37;1.45;;;20.40;99.90;;;;;;7311408;32;20186;-67
2022/08/27 11:36:30;;;;;;;6.85;1.60;;;20.40;99.90;;;;;;7316443;32;20119;-68
2022/08/27 11:40:48;;;;;;;8.90;1.90;;;20.40;99.90;;;;;;7320614;32;20181;-67
2022/08/27 11:45:03;;;;;;;7.30;1.73;;;20.40;99.90;;;;;;7324276;32;20272;-68
2022/08/27 11:49:06;;;;;;;7.43;1.77;;;20.50;99.90;;;;;;7318298;32;20771;-67
2022/08/27 11:53:08;;;;;;;5.15;1.70;;;20.70;99.90;;;;;;7323375;32;20270;-68
2022/08/27 11:57:32;;;;;;;7.65;1.83;;;20.70;99.90;;;;;;7319060;32;20544;-67
2022/08/27 12:01:35;;;;;;;8.25;2.10;;;20.90;99.90;;;;;;7301474;32;20103;-67
2022/08/27 12:05:47;;;;;;;5.35;1.70;;;21.00;99.90;;;;;;7304899;32;20128;-68
2022/08/27 12:09:55;;;;;;;6.65;2.08;;;20.90;99.90;;;;;;7322618;32;20165;-68
2022/08/27 12:14:17;;;;;;;7.78;2.35;;;20.70;99.90;;;;;;7319255;32;20150;-67
2022/08/27 12:18:56;;;;;;;5.93;2.78;;;20.90;99.90;;;;;;7315473;32;20115;-67
2022/08/27 12:23:41;;;;;;;8.40;3.08;;;21.10;99.90;;;;;;7321658;32;20228;-65
2022/08/27 12:27:55;;;;;;;7.20;3.30;;;21.10;99.90;;;;;;7319633;32;20249;-67
2022/08/27 12:32:28;;;;;;;10.02;4.35;;;21.30;99.90;;;;;;7324948;32;20103;-67
2022/08/27 12:36:32;;;;;;;7.60;4.85;;;21.40;99.90;;;;;;7316559;32;20255;-68
2022/08/27 12:40:51;;;;;;;5.95;3.72;;;21.50;99.90;;;;;;7317850;32;20123;-68
2022/08/27 12:44:54;;;;;;;6.57;4.20;;;21.50;99.90;;;;;;7316212;32;20119;-67
2022/08/27 12:49:02;;;;;;;11.80;4.20;;;21.40;99.90;;;;;;7321671;32;20169;-67
2022/08/27 12:53:58;;;;;;;6.27;3.37;;;21.50;99.90;;;;;;7321535;32;20103;-68
2022/08/27 12:58:32;;;;;;;8.40;3.47;;;21.60;99.90;;;;;;7311676;32;20846;-67
2022/08/27 13:02:57;;;;;;;8.30;2.92;;;21.70;99.90;;;;;;7312944;32;20186;-67
2022/08/27 13:06:59;;;;;;;4.35;2.33;;;21.70;99.90;;;;;;7319516;32;20548;-67
2022/08/27 13:11:29;;;;;;;5.35;2.47;;;21.60;99.90;;;;;;7317959;32;20164;-67
2022/08/27 13:15:32;;;;;;;5.97;2.70;;;21.60;99.90;;;;;;7314837;32;20171;-67
2022/08/27 13:19:49;;;;;;;4.87;2.40;;;21.50;99.90;;;;;;7298162;32;20193;-69
2022/08/27 13:24:05;;;;;;;8.30;2.30;;;21.30;99.90;;;;;;7323673;32;20112;-67
2022/08/27 13:28:11;;;;;;;3.72;2.30;;;21.30;99.90;;;;;;7319749;32;20214;-67
2022/08/27 13:32:14;;;;;;;6.47;2.50;;;21.10;99.90;;;;;;7322620;32;20763;-67
2022/08/27 13:36:32;;;;;;;3.87;1.67;;;21.10;99.90;;;;;;7314972;32;20100;-66
2022/08/27 13:40:49;;;;;;;4.78;2.12;;;21.00;99.90;;;;;;7299331;32;20705;-67
2022/08/27 13:44:55;;;;;;;6.90;2.20;;;21.10;99.90;;;;;;7315565;32;20131;-67
2022/08/27 13:48:59;;;;;;;6.97;2.20;;;20.90;99.90;;;;;;7319914;32;20178;-68
2022/08/27 13:57:44;;;;;;;5.50;1.42;;;20.70;99.90;;;;;;7321059;32;20702;-67
2022/08/27 14:01:58;;;;;;;4.75;1.45;;;20.80;99.90;;;;;;7323373;32;20122;-66
2022/08/27 14:06:01;;;;;;;4.60;1.50;;;20.90;99.90;;;;;;7313308;32;20193;-67
2022/08/27 14:10:20;;;;;;;4.70;1.33;;;21.10;99.90;;;;;;7323976;32;20680;-67
2022/08/27 14:14:21;;;;;;;5.90;1.27;;;21.10;99.90;;;;;;7318289;32;20132;-67
2022/08/27 14:18:35;;;;;;;3.97;1.65;;;21.20;99.90;;;;;;7318477;32;20135;-66
2022/08/27 14:22:57;;;;;;;8.45;2.10;;;21.30;99.90;;;;;;7319693;32;20099;-67
2022/08/27 14:27:07;;;;;;;4.15;1.40;;;21.30;99.90;;;;;;7317026;32;20563;-67
2022/08/27 14:31:10;;;;;;;4.72;1.60;;;21.20;99.90;;;;;;7303398;32;20203;-66
2022/08/27 14:35:12;;;;;;;6.90;1.75;;;21.20;99.90;;;;;;7321862;32;20191;-67
2022/08/27 14:39:25;;;;;;;5.35;1.42;;;21.20;99.90;;;;;;7323616;32;20187;-67
2022/08/27 14:43:27;;;;;;;4.03;1.83;;;21.30;99.90;;;;;;7324218;32;20694;-65
2022/08/27 14:47:30;;;;;;;5.00;1.65;;;20.90;99.90;;;;;;7320473;32;20570;-65
2022/08/27 14:51:36;;;;;;;4.40;1.70;;;20.90;99.90;;;;;;7323463;32;20130;-68
2022/08/27 14:55:38;;;;;;;8.65;1.50;;;20.90;99.90;;;;;;7318443;32;20276;-68
2022/08/27 14:59:40;;;;;;;6.30;1.70;;;21.00;99.90;;;;;;7327894;32;20805;-68
2022/08/27 15:03:48;;;;;;;6.97;1.73;;;21.20;99.90;;;;;;7326941;32;20530;-68
2022/08/27 15:07:52;;;;;;;6.20;1.80;;;21.30;99.90;;;;;;7312133;32;20181;-68
2022/08/27 15:11:56;;;;;;;5.37;1.60;;;21.40;99.90;;;;;;7321009;32;20544;-66
2022/08/27 15:15:57;;;;;;;9.68;1.77;;;21.30;99.90;;;;;;7325306;32;20161;-66
2022/08/27 15:19:59;;;;;;;5.07;1.42;;;21.40;99.90;;;;;;7317004;32;20270;-67
2022/08/27 15:24:11;;;;;;;4.30;1.70;;;21.20;99.90;;;;;;7314736;32;20103;-68
2022/08/27 15:28:13;;;;;;;4.70;1.65;;;21.30;99.90;;;;;;7312474;32;20175;-68
2022/08/27 15:32:38;;;;;;;6.97;1.45;;;21.20;99.90;;;;;;7325577;32;20104;-68
2022/08/27 15:36:40;;;;;;;3.60;1.50;;;21.20;99.90;;;;;;7320653;32;20258;-66
2022/08/27 15:40:42;;;;;;;5.82;1.60;;;21.20;99.90;;;;;;7320956;32;20186;-68
2022/08/27 15:44:47;;;;;;;2.58;1.30;;;21.20;99.90;;;;;;7319798;32;20257;-68
2022/08/27 15:48:49;;;;;;;3.72;1.10;;;21.30;99.90;;;;;;7317471;32;20623;-68
2022/08/27 15:52:55;;;;;;;3.70;1.50;;;21.40;99.90;;;;;;7319103;32;20139;-69
2022/08/27 15:56:58;;;;;;;5.60;1.60;;;21.50;99.90;;;;;;7320661;32;20178;-70
2022/08/27 16:01:09;;;;;;;3.72;1.40;;;21.40;99.90;;;;;;7321833;32;20261;-68
2022/08/27 16:05:14;;;;;;;2.78;1.33;;;21.40;99.90;;;;;;7313650;32;20252;-68
2022/08/27 16:09:16;;;;;;;4.47;1.40;;;21.40;99.90;;;;;;7314920;32;20276;-69
2022/08/27 16:13:18;;;;;;;3.83;1.20;;;21.30;99.90;;;;;;7319102;32;20120;-70
2022/08/27 16:17:20;;;;;;;6.35;1.45;;;21.30;99.90;;;;;;7302509;32;20703;-70
2022/08/27 16:21:22;;;;;;;3.15;1.15;;;21.30;99.90;;;;;;7318860;32;20107;-69
2022/08/27 16:25:25;;;;;;;6.22;1.52;;;21.30;99.90;;;;;;7315597;32;20174;-69
2022/08/27 16:29:27;;;;;;;2.83;1.20;;;21.10;99.90;;;;;;7321655;32;20241;-66
2022/08/27 16:33:29;;;;;;;4.40;1.37;;;21.00;99.90;;;;;;7316376;32;20147;-67
2022/08/27 16:37:31;;;;;;;3.22;1.12;;;20.90;99.90;;;;;;7318587;32;20198;-66
2022/08/27 16:41:32;;;;;;;2.50;1.10;;;20.80;99.90;;;;;;7316714;32;20282;-67
2022/08/27 16:45:34;;;;;;;4.25;1.10;;;20.80;99.90;;;;;;7314615;32;20156;-69
2022/08/27 16:53:56;;;;;;;2.65;1.35;;;20.70;99.90;;;;;;7313868;32;20134;-68
2022/08/27 16:57:59;;;;;;;6.18;1.08;;;20.60;99.90;;;;;;7316893;32;20104;-65
2022/08/27 17:02:01;;;;;;;4.95;1.40;;;20.70;99.90;;;;;;7301115;32;20211;-65
2022/08/27 17:06:03;;;;;;;5.93;1.33;;;20.60;99.90;;;;;;7298559;32;20212;-66
2022/08/27 17:10:12;;;;;;;4.45;1.40;;;20.50;99.90;;;;;;7317529;32;20238;-69
2022/08/27 17:14:14;;;;;;;5.15;1.25;;;20.50;99.90;;;;;;7306396;32;20593;-69
2022/08/27 17:18:19;;;;;;;12.80;1.73;;;20.40;99.90;;;;;;7316131;32;20541;-58
2022/08/27 17:22:21;;;;;;;5.32;1.40;;;20.30;99.90;;;;;;7301173;32;20230;-58
2022/08/27 17:26:23;;;;;;;7.03;1.30;;;20.30;99.90;;;;;;7317462;32;20199;-56
2022/08/27 17:30:25;;;;;;;5.95;1.20;;;20.20;99.90;;;;;;7321677;32;20182;-58
2022/08/27 17:34:27;;;;;;;4.78;1.25;;;20.10;99.90;;;;;;7309728;32;20223;-58
2022/08/27 17:38:31;;;;;;;6.40;1.12;;;20.00;99.90;;;;;;7315160;32;20158;-57
2022/08/27 17:42:33;;;;;;;4.43;1.23;;;20.00;99.90;;;;;;7318530;32;20195;-57
2022/08/27 17:46:35;;;;;;;3.90;1.00;;;20.00;99.90;;;;;;7312109;32;20099;-72
2022/08/27 17:50:40;;;;;;;9.40;1.42;;;19.90;99.90;;;;;;7321566;32;20229;-68
2022/08/27 17:54:45;;;;;;;4.07;1.55;;;19.90;99.90;;;;;;7316185;32;20276;-67
2022/08/27 17:58:49;;;;;;;3.97;1.23;;;19.80;99.90;;;;;;7319870;32;20231;-66
2022/08/27 18:02:53;;;;;;;2.15;1.17;;;19.70;99.90;;;;;;7318695;32;20175;-69
2022/08/27 18:06:54;;;;;;;5.97;1.35;;;19.70;99.90;;;;;;7318270;32;20111;-68
2022/08/27 18:10:56;;;;;;;7.75;1.60;;;19.60;99.90;;;;;;7315678;32;20226;-66
2022/08/27 18:15:32;;;;;;;7.65;1.45;;;19.60;99.90;;;;;;7317561;32;20107;-67
2022/08/27 18:19:34;;;;;;;5.80;1.20;;;19.50;99.90;;;;;;7322819;32;20176;-67
2022/08/27 18:23:39;;;;;;;3.62;1.20;;;19.40;99.90;;;;;;7321866;32;20116;-66
2022/08/27 18:27:42;;;;;;;5.43;1.23;;;19.40;99.90;;;;;;7318903;32;20355;-67
2022/08/27 18:31:44;;;;;;;8.70;1.67;;;19.40;99.90;;;;;;7315646;32;20149;-68
2022/08/27 18:35:46;;;;;;;5.18;1.23;;;19.30;99.90;;;;;;7321386;32;20099;-67
2022/08/27 18:39:48;;;;;;;5.87;1.23;;;19.30;99.90;;;;;;7322486;32;20124;-67
2022/08/27 18:43:50;;;;;;;6.85;1.73;;;19.20;99.90;;;;;;7316121;32;20194;-63
2022/08/27 18:47:54;;;;;;;6.65;1.30;;;19.20;99.90;;;;;;7310351;32;20222;-64
2022/08/27 18:51:56;;;;;;;7.18;1.92;;;19.10;99.90;;;;;;7303726;32;20103;-63
2022/08/27 18:55:58;;;;;;;8.88;1.40;;;19.10;99.90;;;;;;7316859;32;20296;-62
2022/08/27 19:00:00;;;;;;;6.18;1.37;;;19.10;99.90;;;;;;7316690;32;20210;-64
2022/08/27 19:04:03;;;;;;;10.05;1.58;;;19.00;99.90;;;;;;7325634;32;20213;-64
2022/08/27 19:08:05;;;;;;;4.53;1.67;;;19.00;99.90;;;;;;7314052;32;20103;-63
2022/08/27 19:12:07;;;;;;;6.93;1.60;;;18.90;99.90;;;;;;7306250;32;20550;-64
2022/08/27 19:16:35;;;;;;;5.55;1.50;;;18.90;99.90;;;;;;7306462;32;20111;-63
2022/08/27 19:20:37;;;;;;;6.65;1.80;;;18.80;99.90;;;;;;7315457;32;20116;-64
2022/08/27 19:24:38;;;;;;;10.35;1.60;;;18.80;99.90;;;;;;7316034;32;20111;-63
2022/08/27 19:28:43;;;;;;;6.18;1.75;;;18.80;99.90;;;;;;7322241;32;20096;-62
2022/08/27 19:32:46;;;;;;;6.78;1.67;;;18.80;99.90;;;;;;7315347;32;20909;-63
2022/08/27 19:37:13;;;;;;;7.05;1.70;;;18.80;99.90;;;;;;7313049;32;20092;-63
2022/08/27 19:41:16;;;;;;;;;;;18.70;99.90;;;;;;7300075;32;20148;-63
2022/08/27 19:45:28;;;;;;;7.85;1.65;;;18.70;99.90;;;;;;7320267;32;20021;-63
2022/08/27 19:49:32;;;;;;;7.22;1.60;;;18.60;99.90;;;;;;7317866;32;20959;-61
2022/08/27 19:53:34;;;;;;;8.18;2.12;;;18.60;99.90;;;;;;7312857;32;20118;-64
2022/08/27 19:57:36;;;;;;;6.68;1.40;;;18.50;99.90;;;;;;7301248;32;20176;-64
2022/08/27 20:01:39;;;;;;;6.60;1.70;;;18.40;99.90;;;;;;7316885;32;20160;-64
2022/08/27 20:05:44;;;;;;;5.25;1.60;;;18.40;99.90;;;;;;7314490;32;20225;-63
2022/08/27 20:09:46;;;;;;;9.43;1.40;;;18.40;99.90;;;;;;7310077;32;20151;-63
2022/08/27 20:13:49;;;;;;;4.78;1.60;;;18.30;99.90;;;;;;7319626;32;20488;-62
2022/08/27 20:17:52;;;;;;;4.12;1.30;;;18.30;99.90;;;;;;7318709;32;20348;-63
2022/08/27 20:21:53;;;;;;;4.80;1.33;;;18.30;99.90;;;;;;7321537;32;20715;-62
2022/08/27 20:25:57;;;;;;;6.45;1.50;;;18.30;99.90;;;;;;7315041;32;20547;-62
2022/08/27 20:30:03;;;;;;;6.37;1.53;;;18.30;99.90;;;;;;7311372;32;20540;-63
2022/08/27 20:34:06;;;;;;;6.57;1.75;;;18.20;99.90;;;;;;7314431;32;20165;-64
2022/08/27 20:38:08;;;;;;;7.75;1.73;;;18.20;99.90;;;;;;7314242;32;20651;-64
2022/08/27 20:42:10;;;;;;;6.97;1.87;;;18.20;99.90;;;;;;7299394;32;20140;-64
2022/08/27 20:46:14;;;;;;;7.40;2.03;;;18.20;99.90;;;;;;7293434;32;20139;-64
2022/08/27 20:50:16;;;;;;;7.57;1.90;;;18.10;99.90;;;;;;7313871;32;20213;-65
2022/08/27 20:54:18;;;;;;;6.57;1.75;;;18.00;99.90;;;;;;7299685;32;20127;-64
2022/08/27 21:02:45;;;;;;;5.37;2.20;;;17.90;99.90;;;;;;7311893;32;20210;-64
2022/08/27 21:06:46;;;;;;;7.65;1.92;;;17.90;99.90;;;;;;7304788;32;20103;-64
2022/08/27 21:10:59;;;;;;;8.70;1.70;;;17.90;99.90;;;;;;7311507;32;20303;-63
2022/08/27 21:15:04;;;;;;;7.57;1.80;;;17.80;99.90;;;;;;7309726;32;20713;-64
2022/08/27 21:19:06;;;;;;;6.20;1.40;;;17.80;99.90;;;;;;7313318;32;20233;-64
2022/08/27 21:23:08;;;;;;;6.50;1.98;;;17.80;99.90;;;;;;7317130;32;20543;-64
2022/08/27 21:27:09;;;;;;;8.52;2.15;;;17.80;99.90;;;;;;7308759;32;20116;-60
2022/08/27 21:31:11;;;;;;;6.00;1.50;;;17.80;99.90;;;;;;7310357;32;20704;-61
2022/08/27 21:35:14;;;;;;;6.12;1.85;;;17.80;99.90;;;;;;7309732;32;20432;-61
2022/08/27 21:39:16;;;;;;;8.05;1.50;;;17.70;99.90;;;;;;7315480;32;21640;-60